Time;durP1;ratioP1;P1;durP2;ratioP2;P2;SDS_P1;SDS_P2;PMS_P1;PMS_P2;Temp;Humidity;BMP_temperature;BMP_pressure;BME280_temperature;BME280_humidity;BME280_pressure;Samples;Min_cycle;Max_cycle;Signal;HPM_P1;HPM_P2
2023/08/13 00:01:29;;;;;;;5.10;4.38;;;;;;;19.89;100.00;96285.34;5102900;28;20030;-67
2023/08/13 00:03:55;;;;;;;4.72;4.22;;;;;;;19.85;100.00;96292.91;5094973;28;20027;-67
2023/08/13 00:06:20;;;;;;;6.53;4.22;;;;;;;19.81;100.00;96288.94;5101923;28;20040;-67
2023/08/13 00:08:45;;;;;;;8.68;4.70;;;;;;;19.80;100.00;96287.28;5105617;28;20024;-67
2023/08/13 00:11:11;;;;;;;7.75;4.53;;;;;;;19.72;100.00;96280.19;5104156;28;20070;-67
2023/08/13 00:13:41;;;;;;;6.15;4.38;;;;;;;19.68;100.00;96283.44;5103904;28;20456;-67
2023/08/13 00:16:08;;;;;;;6.18;4.95;;;;;;;19.66;100.00;96277.44;5100854;28;20118;-67
2023/08/13 00:18:34;;;;;;;7.32;4.18;;;;;;;19.64;100.00;96266.94;5097099;28;20031;-67
2023/08/13 00:20:59;;;;;;;5.00;4.50;;;;;;;19.59;100.00;96264.00;5094312;28;20416;-67
2023/08/13 00:23:26;;;;;;;5.20;4.10;;;;;;;19.57;100.00;96266.84;5098918;28;20475;-68
2023/08/13 00:25:51;;;;;;;8.57;4.00;;;;;;;19.51;100.00;96256.06;5105445;28;20027;-67
2023/08/13 00:28:17;;;;;;;4.88;4.13;;;;;;;19.51;100.00;96256.06;5101934;28;20044;-67
2023/08/13 00:30:42;;;;;;;4.55;4.15;;;;;;;19.51;100.00;96248.06;5094037;28;20031;-67
2023/08/13 00:33:07;;;;;;;5.95;4.28;;;;;;;19.52;100.00;96241.72;5095176;27;20031;-67
2023/08/13 00:35:33;;;;;;;4.68;4.28;;;;;;;19.51;100.00;96237.38;5106844;28;20043;-67
2023/08/13 00:37:58;;;;;;;9.15;4.55;;;;;;;19.53;100.00;96230.03;5106730;28;20397;-67
2023/08/13 00:40:24;;;;;;;7.35;5.25;;;;;;;19.55;100.00;96230.66;5104457;28;20018;-67
2023/08/13 00:42:49;;;;;;;7.47;4.70;;;;;;;19.54;100.00;96229.00;5096671;28;20031;-67
2023/08/13 00:45:15;;;;;;;4.65;4.25;;;;;;;19.47;100.00;96219.06;5095940;28;20032;-67
2023/08/13 00:47:41;;;;;;;4.85;4.20;;;;;;;19.44;100.00;96208.78;5101324;28;20671;-67
2023/08/13 00:50:07;;;;;;;4.30;3.90;;;;;;;19.41;100.00;96203.81;5108592;28;20024;-67
2023/08/13 00:52:32;;;;;;;6.30;4.60;;;;;;;19.39;100.00;96189.81;5095581;28;20032;-67
2023/08/13 00:54:58;;;;;;;5.07;4.20;;;;;;;19.39;100.00;96189.81;5099591;28;20415;-67
2023/08/13 00:57:24;;;;;;;6.93;4.75;;;;;;;19.44;100.00;96187.41;5105882;28;20055;-67
2023/08/13 00:59:51;;;;;;;7.53;4.38;;;;;;;19.44;100.00;96182.06;5118574;28;20110;-67
2023/08/13 01:02:17;;;;;;;4.70;4.25;;;;;;;19.42;100.00;96176.09;5100448;28;20656;-67
2023/08/13 01:04:42;;;;;;;4.97;4.57;;;;;;;19.39;100.00;96176.47;5097891;28;20020;-67
2023/08/13 01:07:13;;;;;;;4.95;4.25;;;;;;;19.37;100.00;96172.31;5097911;28;20061;-67
2023/08/13 01:09:42;;;;;;;7.18;4.70;;;;;;;19.33;100.00;96164.69;5098014;28;20100;-67
2023/08/13 01:12:37;;;;;;;7.72;4.57;;;;;;;19.29;100.00;96157.22;5104976;28;20075;-67
2023/08/13 01:15:08;;;;;;;5.35;4.00;;;;;;;19.29;100.00;96151.88;5110879;28;20149;-66
2023/08/13 01:17:35;;;;;;;8.00;4.40;;;;;;;19.28;100.00;96144.91;5100873;28;20031;-67
2023/08/13 01:20:05;;;;;;;6.15;4.15;;;;;;;19.26;100.00;96147.75;5097239;28;20027;-67
2023/08/13 01:22:35;;;;;;;4.72;4.35;;;;;;;19.20;100.00;96145.00;5107176;28;20043;-67
2023/08/13 01:25:01;;;;;;;6.85;4.28;;;;;;;19.16;100.00;96133.84;5097749;28;20549;-66
2023/08/13 01:27:37;;;;;;;4.70;4.15;;;;;;;19.11;100.00;96118.41;5095828;28;20032;-67
2023/08/13 01:30:12;;;;;;;5.97;4.93;;;;;;;19.07;100.00;96101.09;5095925;28;20028;-66
2023/08/13 01:32:48;;;;;;;7.75;4.47;;;;;;;19.05;100.00;96087.13;5097337;28;20084;-67
2023/08/13 01:35:16;;;;;;;5.20;4.70;;;;;;;19.06;100.00;96088.78;5097325;28;20096;-67
2023/08/13 01:37:42;;;;;;;6.47;4.03;;;;;;;19.02;100.00;96066.16;5108606;28;20507;-67
2023/08/13 01:40:08;;;;;;;5.50;3.97;;;;;;;18.99;100.00;96061.19;5105181;28;20038;-67
2023/08/13 01:42:34;;;;;;;5.07;4.55;;;;;;;19.00;100.00;96057.53;5114191;28;20041;-67
2023/08/13 01:44:59;;;;;;;4.40;4.00;;;;;;;18.97;100.00;96061.34;5103853;28;20047;-66
2023/08/13 01:47:24;;;;;;;5.40;4.35;;;;;;;18.97;100.00;96060.53;5111916;28;20028;-67
2023/08/13 01:49:50;;;;;;;5.50;4.65;;;;;;;18.99;100.00;96055.88;5104909;28;20062;-67
2023/08/13 01:52:15;;;;;;;4.95;4.45;;;;;;;18.98;100.00;96059.50;5102897;28;20110;-67
2023/08/13 01:54:41;;;;;;;5.15;4.60;;;;;;;18.94;100.00;96045.72;5105695;28;20043;-67
2023/08/13 01:57:06;;;;;;;6.38;4.57;;;;;;;18.87;100.00;96037.63;5096946;28;20038;-67
2023/08/13 01:59:31;;;;;;;4.90;4.50;;;;;;;18.85;100.00;96031.66;5102511;28;20085;-67
2023/08/13 02:01:57;;;;;;;5.20;4.70;;;;;;;18.83;100.00;96025.66;5110196;28;20036;-66
2023/08/13 02:04:22;;;;;;;6.60;4.50;;;;;;;18.80;100.00;96011.91;5095788;28;20024;-66
2023/08/13 02:06:48;;;;;;;5.82;4.60;;;;;;;18.79;100.00;96011.06;5099618;28;20467;-67
2023/08/13 02:09:13;;;;;;;4.95;4.50;;;;;;;18.80;100.00;95996.72;5115903;28;20028;-67
2023/08/13 02:11:38;;;;;;;5.50;4.90;;;;;;;18.80;100.00;95988.72;5116176;28;20032;-67
2023/08/13 02:14:04;;;;;;;5.07;4.57;;;;;;;18.79;100.00;95991.53;5100899;28;20024;-67
2023/08/13 02:16:29;;;;;;;5.03;4.55;;;;;;;18.80;100.00;95979.91;5096462;28;20031;-66
2023/08/13 02:18:55;;;;;;;6.40;4.85;;;;;;;18.83;100.00;95969.66;5107813;28;20027;-66
2023/08/13 02:21:20;;;;;;;5.22;4.72;;;;;;;18.83;100.00;95959.00;5104372;28;20024;-66
2023/08/13 02:23:45;;;;;;;8.52;5.07;;;;;;;18.79;100.00;95955.06;5100920;28;20035;-67
2023/08/13 02:26:13;;;;;;;5.55;4.30;;;;;;;18.78;100.00;95948.06;5108174;27;20027;-67
2023/08/13 02:28:38;;;;;;;5.00;4.50;;;;;;;18.75;100.00;95935.91;5107461;27;20060;-67
2023/08/13 02:31:04;;;;;;;4.53;4.18;;;;;;;18.73;100.00;95918.47;5104015;28;20435;-67
2023/08/13 02:33:29;;;;;;;9.77;4.43;;;;;;;18.66;100.00;95897.06;5096673;28;20074;-67
2023/08/13 02:35:54;;;;;;;8.43;4.78;;;;;;;18.64;100.00;95880.44;5096206;28;20031;-67
2023/08/13 02:38:20;;;;;;;5.32;4.68;;;;;;;18.65;100.00;95866.09;5096689;28;20031;-67
2023/08/13 02:40:45;;;;;;;7.40;5.20;;;;;;;18.64;100.00;95850.25;5115741;27;20027;-67
2023/08/13 02:43:11;;;;;;;5.82;4.75;;;;;;;18.65;100.00;95838.56;5101328;28;20032;-66
2023/08/13 02:45:36;;;;;;;7.90;4.10;;;;;;;18.64;100.00;95828.94;5111845;28;20031;-66
2023/08/13 02:48:02;;;;;;;7.97;4.93;;;;;;;18.59;100.00;95817.00;5100917;28;20107;-67
2023/08/13 02:50:27;;;;;;;6.82;4.53;;;;;;;18.57;100.00;95795.03;5100746;28;20050;-67
2023/08/13 02:52:53;;;;;;;5.43;4.45;;;;;;;18.53;100.00;95780.44;5094810;28;20621;-67
2023/08/13 02:55:18;;;;;;;6.60;4.10;;;;;;;18.49;100.00;95751.69;5095974;28;20107;-67
2023/08/13 02:57:44;;;;;;;7.32;4.40;;;;;;;18.45;100.00;95741.41;5095455;28;20020;-67
2023/08/13 03:00:10;;;;;;;5.32;4.63;;;;;;;18.41;100.00;95720.66;5100284;28;20093;-67
2023/08/13 03:02:35;;;;;;;8.52;5.63;;;;;;;18.37;100.00;95706.91;5096281;28;20492;-67
2023/08/13 03:05:01;;;;;;;6.68;4.70;;;;;;;18.35;100.00;95695.59;5096682;28;20047;-67
2023/08/13 03:07:26;;;;;;;4.93;4.53;;;;;;;18.30;100.00;95658.88;5097535;28;20412;-67
2023/08/13 03:09:52;;;;;;;6.68;4.50;;;;;;;18.32;100.00;95635.50;5095870;28;20042;-66
2023/08/13 03:12:17;;;;;;;5.90;4.30;;;;;;;18.29;100.00;95625.25;5096294;28;20126;-67
2023/08/13 03:14:42;;;;;;;5.00;4.60;;;;;;;18.27;100.00;95607.78;5101260;28;20075;-67
2023/08/13 03:17:08;;;;;;;6.35;4.55;;;;;;;18.28;100.00;95598.78;5086808;28;20089;-67
2023/08/13 03:19:33;;;;;;;4.80;4.40;;;;;;;18.23;100.00;95593.19;5096191;28;20677;-67
2023/08/13 03:21:59;;;;;;;4.88;3.88;;;;;;;18.17;100.00;95578.81;5098418;28;20849;-67
2023/08/13 03:24:25;;;;;;;6.80;5.05;;;;;;;18.13;100.00;95558.91;5099375;28;20370;-67
2023/08/13 03:26:50;;;;;;;6.97;4.88;;;;;;;18.09;100.00;95539.00;5096602;28;20036;-67
2023/08/13 03:29:15;;;;;;;7.90;4.65;;;;;;;18.09;100.00;95502.50;5101339;28;20052;-67
2023/08/13 03:31:41;;;;;;;9.10;4.68;;;;;;;18.10;100.00;95476.72;5097263;28;20580;-67
2023/08/13 03:34:06;;;;;;;6.43;4.70;;;;;;;18.03;100.00;95461.53;5108329;27;20034;-66
2023/08/13 03:36:32;;;;;;;5.57;5.10;;;;;;;18.03;100.00;95429.56;5094141;28;20107;-67
2023/08/13 03:38:57;;;;;;;5.35;4.82;;;;;;;18.02;100.00;95417.25;5103733;28;20034;-67
2023/08/13 03:41:22;;;;;;;4.95;4.45;;;;;;;18.00;100.00;95399.78;5099550;28;20069;-67
2023/08/13 03:43:48;;;;;;;6.28;4.68;;;;;;;17.98;100.00;95388.50;5096336;28;20383;-67
2023/08/13 03:46:13;;;;;;;9.70;5.00;;;;;;;17.99;100.00;95376.84;5094921;28;20035;-67
2023/08/13 03:48:39;;;;;;;4.97;4.57;;;;;;;18.00;100.00;95357.16;5098879;28;20087;-67
2023/08/13 03:51:04;;;;;;;6.18;5.18;;;;;;;17.99;100.00;95342.22;5114233;27;20031;-67
2023/08/13 03:53:29;;;;;;;6.20;5.13;;;;;;;18.00;100.00;95320.69;5078407;28;20081;-67
2023/08/13 03:55:55;;;;;;;6.18;4.63;;;;;;;18.00;100.00;95327.88;5094353;28;20047;-67
2023/08/13 03:58:20;;;;;;;5.80;5.25;;;;;;;17.96;100.00;95334.63;5098834;28;20023;-67
2023/08/13 04:00:46;;;;;;;6.85;4.63;;;;;;;17.91;100.00;95329.88;5103171;28;20054;-67
2023/08/13 04:03:11;;;;;;;4.80;4.40;;;;;;;17.89;100.00;95310.63;5094787;28;20012;-67
2023/08/13 04:05:36;;;;;;;5.15;4.63;;;;;;;17.82;100.00;95272.50;5093326;28;20024;-67
2023/08/13 04:08:02;;;;;;;7.60;5.10;;;;;;;17.83;100.00;95253.66;5076410;28;20060;-67
2023/08/13 04:10:28;;;;;;;7.07;4.90;;;;;;;17.83;100.00;95248.31;5098329;28;20028;-66
2023/08/13 04:12:56;;;;;;;5.72;5.22;;;;;;;17.82;100.00;95249.34;5104010;28;20031;-66
2023/08/13 04:15:22;;;;;;;5.18;4.68;;;;;;;17.83;100.00;95243.00;5099386;28;20032;-66
2023/08/13 04:17:48;;;;;;;6.90;5.07;;;;;;;17.83;100.00;95232.34;5099536;28;20043;-67
2023/08/13 04:20:14;;;;;;;7.10;4.50;;;;;;;17.81;100.00;95231.72;5097569;28;20016;-67
2023/08/13 04:22:39;;;;;;;6.15;4.85;;;;;;;17.76;100.00;95250.94;5098116;28;20038;-67
2023/08/13 04:25:07;;;;;;;6.40;4.68;;;;;;;17.76;100.00;95234.16;5109875;28;20027;-66
2023/08/13 04:27:33;;;;;;;8.23;5.03;;;;;;;17.72;100.00;95231.06;5103642;28;20052;-67
2023/08/13 04:29:58;;;;;;;8.57;4.97;;;;;;;17.62;100.00;95225.31;5097412;28;20063;-66
2023/08/13 04:32:23;;;;;;;7.53;4.90;;;;;;;17.53;100.00;95219.31;5102629;28;20032;-67
2023/08/13 04:34:49;;;;;;;5.25;4.75;;;;;;;17.47;100.00;95204.97;5093791;28;20532;-67
2023/08/13 04:37:14;;;;;;;6.88;5.07;;;;;;;17.50;100.00;95168.31;5101515;28;20473;-67
2023/08/13 04:39:40;;;;;;;7.55;4.75;;;;;;;17.49;100.00;95148.06;5093690;28;20484;-66
2023/08/13 04:42:05;;;;;;;5.68;4.90;;;;;;;17.53;100.00;95134.16;5096586;28;20020;-66
2023/08/13 04:44:30;;;;;;;5.80;5.20;;;;;;;17.50;100.00;95123.91;5093876;28;20069;-67
2023/08/13 04:46:56;;;;;;;7.72;5.50;;;;;;;17.47;100.00;95127.00;5092655;28;20097;-67
2023/08/13 04:49:22;;;;;;;5.22;4.75;;;;;;;17.45;100.00;95108.53;5100624;28;20016;-67
2023/08/13 04:51:47;;;;;;;5.25;4.75;;;;;;;17.47;100.00;95095.06;5093708;28;20061;-67
2023/08/13 04:54:12;;;;;;;6.53;5.32;;;;;;;17.50;100.00;95097.31;5104566;28;20483;-67
2023/08/13 04:56:38;;;;;;;6.88;5.25;;;;;;;17.53;100.00;95101.41;5100936;28;20077;-66
2023/08/13 04:59:04;;;;;;;7.25;5.18;;;;;;;17.55;100.00;95105.50;5105776;28;20327;-67
2023/08/13 05:01:29;;;;;;;9.20;5.13;;;;;;;17.54;100.00;95116.34;5094827;28;20020;-67
2023/08/13 05:03:54;;;;;;;5.90;5.00;;;;;;;17.56;100.00;95112.47;5093810;28;20024;-67
2023/08/13 05:06:20;;;;;;;6.10;5.50;;;;;;;17.53;100.00;95118.19;5106718;28;20035;-67
2023/08/13 05:08:46;;;;;;;5.70;5.13;;;;;;;17.54;100.00;95122.50;5115417;28;20024;-67
2023/08/13 05:11:11;;;;;;;7.97;5.10;;;;;;;17.52;100.00;95132.53;5103684;28;20047;-66
2023/08/13 05:13:37;;;;;;;8.18;5.57;;;;;;;17.53;100.00;95131.50;5104922;28;20047;-67
2023/08/13 05:16:02;;;;;;;7.40;4.88;;;;;;;17.56;100.00;95151.56;5095010;28;20107;-66
2023/08/13 05:18:28;;;;;;;5.45;4.95;;;;;;;17.62;100.00;95156.09;5104863;28;20053;-67
2023/08/13 05:20:53;;;;;;;7.85;5.35;;;;;;;17.60;100.00;95155.47;5094842;28;20385;-66
2023/08/13 05:23:19;;;;;;;5.97;5.03;;;;;;;17.62;100.00;95153.44;5092414;28;20016;-67
2023/08/13 05:25:44;;;;;;;6.43;5.10;;;;;;;17.73;100.00;95144.88;5093379;28;20020;-67
2023/08/13 05:28:10;;;;;;;6.95;5.13;;;;;;;17.80;100.00;95142.22;5108450;28;20059;-66
2023/08/13 05:30:37;;;;;;;5.07;4.65;;;;;;;17.87;100.00;95156.38;5096688;28;20103;-66
2023/08/13 05:33:03;;;;;;;6.30;5.18;;;;;;;17.94;100.00;95176.88;5120521;28;20019;-67
2023/08/13 05:35:29;;;;;;;5.90;5.30;;;;;;;17.97;100.00;95213.75;5094455;28;20066;-66
2023/08/13 05:37:54;;;;;;;5.65;5.05;;;;;;;17.95;100.00;95231.78;5093525;28;20024;-67
2023/08/13 05:40:20;;;;;;;8.82;5.50;;;;;;;17.95;100.00;95248.56;5097303;28;20019;-67
2023/08/13 05:42:46;;;;;;;7.80;5.20;;;;;;;17.96;100.00;95244.88;5093858;28;20016;-66
2023/08/13 05:45:12;;;;;;;8.77;5.22;;;;;;;17.95;100.00;95240.59;5112931;28;20024;-66
2023/08/13 05:47:37;;;;;;;6.47;4.97;;;;;;;17.94;100.00;95254.91;5116120;28;20030;-66
2023/08/13 05:50:03;;;;;;;6.43;5.68;;;;;;;17.96;100.00;95246.75;5102583;28;20077;-66
2023/08/13 05:52:29;;;;;;;6.03;5.53;;;;;;;18.00;100.00;95238.13;5096891;28;20020;-66
2023/08/13 05:54:55;;;;;;;6.32;4.95;;;;;;;18.01;100.00;95255.78;5100561;28;20024;-66
2023/08/13 05:57:21;;;;;;;5.43;4.93;;;;;;;18.09;100.00;95307.25;5097069;28;20365;-67
2023/08/13 05:59:46;;;;;;;8.00;5.18;;;;;;;18.15;100.00;95301.13;5098308;28;20023;-67
2023/08/13 06:02:12;;;;;;;8.63;5.10;;;;;;;18.26;100.00;95292.56;5098563;28;20024;-67
2023/08/13 06:04:37;;;;;;;9.65;5.70;;;;;;;18.36;100.00;95291.34;5107671;28;20583;-67
2023/08/13 06:07:03;;;;;;;6.43;5.45;;;;;;;18.43;100.00;95298.34;5095189;28;20173;-66
2023/08/13 06:09:30;;;;;;;8.32;5.45;;;;;;;18.51;100.00;95313.34;5101848;28;20035;-66
2023/08/13 06:11:55;;;;;;;8.77;5.45;;;;;;;18.64;100.00;95331.22;5103970;28;20066;-67
2023/08/13 06:14:21;;;;;;;6.45;5.47;;;;;;;18.75;100.00;95356.47;5100208;28;20019;-67
2023/08/13 06:16:46;;;;;;;5.10;4.65;;;;;;;18.86;100.00;95395.06;5104087;28;20114;-67
2023/08/13 06:19:12;;;;;;;9.25;4.80;;;;;;;19.02;100.00;95423.22;5096393;28;20020;-67
2023/08/13 06:21:38;;;;;;;5.28;4.78;;;;;;;19.20;100.00;95448.53;5096630;28;20024;-67
2023/08/13 06:24:05;;;;;;;7.80;5.07;;;;;;;19.39;100.00;95481.59;5098571;28;20020;-66
2023/08/13 06:26:31;;;;;;;11.73;4.93;;;;;;;19.61;100.00;95506.28;5108963;27;20029;-67
2023/08/13 06:28:57;;;;;;;4.70;4.28;;;;;;;19.76;100.00;95540.81;5097212;28;20614;-67
2023/08/13 06:31:22;;;;;;;7.65;5.07;;;;;;;19.91;100.00;95567.38;5096335;28;20032;-67
2023/08/13 06:33:47;;;;;;;6.72;5.25;;;;;;;20.00;100.00;95600.84;5112886;27;20019;-67
2023/08/13 06:36:13;;;;;;;5.18;4.60;;;;;;;20.11;100.00;95636.03;5096159;28;20020;-67
2023/08/13 06:38:38;;;;;;;4.82;4.43;;;;;;;20.24;100.00;95654.78;5103831;28;20027;-67
2023/08/13 06:41:05;;;;;;;8.82;5.07;;;;;;;20.41;100.00;95673.06;5096257;28;20526;-67
2023/08/13 06:43:32;;;;;;;7.68;5.10;;;;;;;20.55;100.00;95697.97;5097139;28;20032;-67
2023/08/13 06:45:59;;;;;;;5.25;4.82;;;;;;;20.85;100.00;95692.25;5105407;28;20112;-67
2023/08/13 06:48:26;;;;;;;5.15;4.65;;;;;;;21.14;100.00;95677.59;5098873;28;20027;-67
2023/08/13 06:50:55;;;;;;;5.60;4.47;;;;;;;21.40;100.00;95689.28;5101759;28;20028;-67
2023/08/13 06:53:20;;;;;;;7.20;4.22;;;;;;;21.45;100.00;95683.28;5100043;28;20031;-67
2023/08/13 06:55:46;;;;;;;4.70;4.30;;;;;;;21.60;100.00;95689.19;5095398;28;20040;-67
2023/08/13 06:58:11;;;;;;;6.28;4.28;;;;;;;21.61;100.00;95698.06;5096738;28;20020;-67
2023/08/13 07:00:37;;;;;;;4.80;4.40;;;;;;;21.65;100.00;95691.28;5105446;28;20028;-67
2023/08/13 07:03:03;;;;;;;10.60;4.68;;;;;;;21.64;100.00;95696.81;5098325;28;20111;-67
2023/08/13 07:05:29;;;;;;;5.45;4.95;;;;;;;21.56;100.00;95692.53;5101728;28;20067;-66
2023/08/13 07:07:55;;;;;;;6.88;4.55;;;;;;;21.45;100.00;95705.53;5102511;28;20051;-67
2023/08/13 07:10:20;;;;;;;5.05;4.55;;;;;;;21.54;100.00;95683.84;5095815;28;20059;-66
2023/08/13 07:12:45;;;;;;;6.75;4.03;;;;;;;21.76;100.00;95671.03;5091144;28;20111;-67
2023/08/13 07:15:11;;;;;;;4.63;4.22;;;;;;;22.17;100.00;95658.22;5099061;28;20036;-67
2023/08/13 07:17:36;;;;;;;5.82;4.38;;;;;;;22.58;100.00;95619.38;5095442;28;20043;-67
2023/08/13 07:20:05;;;;;;;4.30;3.90;;;;;;;23.01;100.00;95593.59;5095824;28;20553;-67
2023/08/13 07:22:30;;;;;;;5.03;4.20;;;;;;;23.41;100.00;95589.66;5101688;28;20440;-66
2023/08/13 07:24:56;;;;;;;8.13;4.55;;;;;;;23.72;100.00;95571.66;5109822;28;20100;-67
2023/08/13 07:27:22;;;;;;;6.45;5.20;;;;;;;24.09;100.00;95535.78;5104754;27;20024;-67
2023/08/13 07:29:48;;;;;;;9.48;6.15;;;;;;;24.26;100.00;95527.88;5105143;28;20110;-67
2023/08/13 07:32:13;;;;;;;8.93;5.40;;;;;;;24.58;100.00;95508.69;5109229;27;20028;-67
2023/08/13 07:34:39;;;;;;;8.68;5.32;;;;;;;24.86;100.00;95520.59;5110969;27;20038;-67
2023/08/13 07:37:05;;;;;;;7.90;4.95;;;;;;;25.21;100.00;95504.63;5095393;28;20027;-67
2023/08/13 07:39:31;;;;;;;5.78;4.88;;;;;;;25.39;100.00;95503.59;5095269;28;20453;-67
2023/08/13 07:41:56;;;;;;;6.00;4.85;;;;;;;25.69;100.00;95497.97;5100443;28;20039;-67
2023/08/13 07:44:22;;;;;;;4.63;4.22;;;;;;;25.73;100.00;95511.81;5102976;28;20161;-67
2023/08/13 07:46:50;;;;;;;5.60;4.60;;;;;;;25.68;100.00;95538.66;5109636;28;20020;-67
2023/08/13 07:49:16;;;;;;;6.13;4.47;;;;;;;25.71;100.00;95538.19;5105608;28;20027;-67
2023/08/13 07:51:41;;;;;;;8.85;4.50;;;;;;;25.89;100.00;95529.06;5114292;28;20035;-67
2023/08/13 07:54:06;;;;;;;5.13;4.10;;;;;;;25.82;100.00;95611.97;5098321;27;20028;-67
2023/08/13 07:56:32;;;;;;;5.82;3.90;;;;;;;26.13;100.00;95601.75;5098160;28;20024;-67
2023/08/13 07:58:57;;;;;;;4.88;4.38;;;;;;;26.37;100.00;95607.03;5094785;28;20137;-67
2023/08/13 08:01:23;;;;;;;4.65;4.15;;;;;;;26.37;100.00;95620.50;5098065;28;20027;-67
2023/08/13 08:03:48;;;;;;;5.40;3.75;;;;;;;26.72;100.00;95638.34;5103530;28;20148;-67
2023/08/13 08:06:13;;;;;;;4.68;3.95;;;;;;;27.17;100.00;95658.22;5098332;28;20023;-67
2023/08/13 08:08:39;;;;;;;7.07;4.13;;;;;;;27.27;100.00;95665.66;5098617;28;20024;-67
2023/08/13 08:11:04;;;;;;;11.48;4.43;;;;;;;27.30;100.00;95700.28;5094274;28;20050;-67
2023/08/13 08:13:32;;;;;;;5.85;4.05;;;;;;;27.36;100.00;95707.41;5105085;28;20470;-67
2023/08/13 08:15:57;;;;;;;5.78;4.32;;;;;;;27.31;100.00;95701.94;5109255;28;20468;-67
2023/08/13 08:18:23;;;;;;;4.35;3.95;;;;;;;27.33;100.00;95707.06;5092593;28;20059;-67
2023/08/13 08:20:48;;;;;;;5.70;3.95;;;;;;;27.43;100.00;95705.34;5093180;28;20107;-67
2023/08/13 08:23:14;;;;;;;5.82;3.47;;;;;;;26.83;100.00;95723.84;5109633;28;20031;-67
2023/08/13 08:25:39;;;;;;;6.50;3.90;;;;;;;26.44;100.00;95731.84;5097280;28;20466;-66
2023/08/13 08:28:05;;;;;;;3.90;3.60;;;;;;;26.06;100.00;95717.84;5094060;28;20078;-67
2023/08/13 08:30:30;;;;;;;6.57;3.88;;;;;;;25.74;100.00;95716.41;5092484;28;20038;-66
2023/08/13 08:32:56;;;;;;;5.28;3.90;;;;;;;25.58;100.00;95746.81;5094139;28;20028;-67
2023/08/13 08:35:21;;;;;;;6.55;4.13;;;;;;;25.55;100.00;95763.47;5105021;28;20074;-67
2023/08/13 08:37:47;;;;;;;4.97;3.60;;;;;;;25.96;100.00;95769.72;5093837;28;20064;-67
2023/08/13 08:40:13;;;;;;;5.97;3.80;;;;;;;26.31;100.00;95803.91;5094095;28;20137;-66
2023/08/13 08:42:41;;;;;;;5.85;4.40;;;;;;;26.73;100.00;95837.91;5092363;28;20028;-66
2023/08/13 08:45:09;;;;;;;6.50;4.45;;;;;;;27.09;100.00;95848.59;5093863;28;20404;-67
2023/08/13 08:47:35;;;;;;;6.05;4.00;;;;;;;27.49;100.00;95871.13;5103517;28;20103;-67
2023/08/13 08:50:03;;;;;;;4.32;3.97;;;;;;;27.72;100.00;95874.75;5105465;28;20100;-68
2023/08/13 08:52:32;;;;;;;4.57;4.10;;;;;;;27.92;100.00;95895.88;5102032;28;20028;-68
2023/08/13 08:54:59;;;;;;;5.55;3.78;;;;;;;28.09;100.00;95908.56;5096026;28;20460;-67
2023/08/13 08:57:24;;;;;;;6.85;4.00;;;;;;;28.14;100.00;95914.03;5093799;28;20016;-67
2023/08/13 08:59:51;;;;;;;4.97;4.13;;;;;;;28.29;100.00;95954.06;5097132;28;20080;-67
2023/08/13 09:02:17;;;;;;;7.80;4.40;;;;;;;28.13;100.00;95955.69;5102565;28;20054;-68
2023/08/13 09:04:43;;;;;;;4.88;3.72;;;;;;;28.10;100.00;95962.44;5093522;28;20016;-68
2023/08/13 09:07:08;;;;;;;5.35;3.47;;;;;;;28.27;100.00;95972.44;5108984;28;20034;-68
2023/08/13 09:09:34;;;;;;;4.05;3.33;;;;;;;28.64;100.00;95990.03;5096109;28;20030;-67
2023/08/13 09:12:01;;;;;;;4.40;3.75;;;;;;;28.83;100.00;95996.00;5093665;28;20625;-67
2023/08/13 09:14:26;;;;;;;8.70;3.47;;;;;;;29.02;100.00;96010.88;5098539;28;20024;-67
2023/08/13 09:16:54;;;;;;;5.93;3.30;;;;;;;29.38;100.00;96026.72;5102291;28;20035;-67
2023/08/13 09:19:22;;;;;;;4.57;3.50;;;;;;;29.73;100.00;96030.09;5095356;28;20028;-65
2023/08/13 09:21:52;;;;;;;5.43;3.17;;;;;;;30.10;100.00;96047.53;5114217;28;20028;-65
2023/08/13 09:24:18;;;;;;;4.10;3.08;;;;;;;29.92;100.00;96046.00;5097952;28;20066;-65
2023/08/13 09:26:44;;;;;;;8.25;3.78;;;;;;;30.14;100.00;96065.78;5113971;27;20027;-65
2023/08/13 09:29:10;;;;;;;3.97;3.58;;;;;;;29.86;100.00;96069.56;5109786;27;20051;-65
2023/08/13 09:31:36;;;;;;;3.95;3.60;;;;;;;29.83;100.00;96073.59;5097428;28;20103;-65
2023/08/13 09:34:02;;;;;;;3.50;3.20;;;;;;;29.99;100.00;96071.03;5115338;27;20020;-65
2023/08/13 09:36:29;;;;;;;4.47;3.45;;;;;;;30.09;100.00;96073.06;5101452;28;20573;-65
2023/08/13 09:38:54;;;;;;;5.10;3.88;;;;;;;29.86;100.00;96062.25;5111151;28;20028;-65
2023/08/13 09:41:20;;;;;;;4.07;3.47;;;;;;;30.04;100.00;96062.97;5098639;28;20068;-65
2023/08/13 09:43:49;;;;;;;5.57;3.35;;;;;;;29.92;100.00;96076.66;5097436;28;20028;-65
2023/08/13 09:46:27;;;;;;;4.35;3.92;;;;;;;29.79;100.00;96075.19;5110365;28;20024;-65
2023/08/13 09:48:55;;;;;;;4.25;3.72;;;;;;;30.11;100.00;96084.47;5098545;28;20039;-65
2023/08/13 09:51:28;;;;;;;6.50;3.47;;;;;;;30.01;100.00;96086.03;5101644;28;20055;-65
2023/08/13 09:54:08;;;;;;;5.30;3.72;;;;;;;30.01;100.00;96090.59;5096948;28;20024;-65
2023/08/13 09:56:36;;;;;;;3.88;3.45;;;;;;;30.09;100.00;96103.75;5097048;28;20031;-65
2023/08/13 09:59:02;;;;;;;4.35;3.42;;;;;;;30.42;100.00;96101.03;5097525;28;20130;-65
2023/08/13 10:01:28;;;;;;;4.40;3.20;;;;;;;30.24;100.00;96100.34;5096675;28;20028;-65
2023/08/13 10:03:54;;;;;;;6.43;4.05;;;;;;;29.94;100.00;96103.56;5099463;28;20073;-65
2023/08/13 10:06:21;;;;;;;5.38;3.30;;;;;;;30.19;100.00;96140.19;5111133;28;20046;-65
2023/08/13 10:08:48;;;;;;;7.50;3.30;;;;;;;30.08;100.00;96139.28;5101245;28;20031;-65
2023/08/13 10:11:14;;;;;;;6.03;3.38;;;;;;;29.73;100.00;96134.00;5098385;28;20024;-67
2023/08/13 10:13:40;;;;;;;5.22;3.42;;;;;;;29.64;100.00;96124.66;5096377;28;20404;-67
2023/08/13 10:16:06;;;;;;;5.97;3.38;;;;;;;29.56;100.00;96128.63;5102994;28;20036;-67
2023/08/13 10:18:33;;;;;;;4.85;3.20;;;;;;;29.76;100.00;96121.00;5101183;28;20031;-67
2023/08/13 10:20:58;;;;;;;3.90;3.50;;;;;;;29.86;100.00;96123.81;5104415;28;20019;-68
2023/08/13 10:23:26;;;;;;;6.82;3.38;;;;;;;30.17;100.00;96113.28;5099831;28;20035;-67
2023/08/13 10:25:53;;;;;;;4.63;3.50;;;;;;;30.41;100.00;96107.53;5111580;27;20043;-68
2023/08/13 10:28:31;;;;;;;4.57;3.10;;;;;;;30.79;100.00;96096.72;5097505;27;20055;-68
2023/08/13 10:31:19;;;;;;;5.57;3.28;;;;;;;31.11;100.00;96088.47;5095097;28;20020;-67
2023/08/13 10:33:44;;;;;;;5.15;3.60;;;;;;;30.86;100.00;96100.00;5103402;27;21091;-67
2023/08/13 10:36:10;;;;;;;5.07;3.20;;;;;;;30.83;100.00;96092.38;5108107;28;20065;-67
2023/08/13 10:38:38;;;;;;;4.35;2.88;;;;;;;30.76;100.00;96089.88;5101109;28;20031;-68
2023/08/13 10:41:06;;;;;;;4.55;3.20;;;;;;;30.72;100.00;96084.16;5104232;28;20468;-67
2023/08/13 10:43:33;;;;;;;5.20;3.47;;;;;;;30.98;100.00;96078.06;5095894;28;20031;-67
2023/08/13 10:45:58;;;;;;;4.75;3.67;;;;;;;31.10;100.00;96086.84;5112083;28;20031;-67
2023/08/13 10:48:28;;;;;;;3.17;2.90;;;;;;;31.22;100.00;96069.50;5099965;28;20012;-67
2023/08/13 10:50:57;;;;;;;3.45;3.05;;;;;;;30.84;100.00;96072.28;5114985;27;20035;-68
2023/08/13 10:53:26;;;;;;;4.90;3.47;;;;;;;30.82;100.00;96064.38;5098419;27;20024;-67
2023/08/13 10:55:53;;;;;;;5.82;3.63;;;;;;;31.15;100.00;96058.84;5095918;28;20020;-67
2023/08/13 10:58:25;;;;;;;4.90;3.53;;;;;;;31.22;100.00;96059.47;5095962;28;20012;-67
2023/08/13 11:00:50;;;;;;;3.30;3.10;;;;;;;31.28;100.00;96057.56;5095948;28;20016;-67
2023/08/13 11:03:20;;;;;;;3.35;3.05;;;;;;;30.92;100.00;96058.19;5095725;28;20019;-67
2023/08/13 11:05:47;;;;;;;3.50;3.20;;;;;;;31.02;100.00;96058.25;5100567;28;20035;-67
2023/08/13 11:08:23;;;;;;;4.72;3.22;;;;;;;31.19;100.00;96049.09;5094746;28;20034;-67
2023/08/13 11:10:49;;;;;;;5.82;3.42;;;;;;;31.56;100.00;96047.34;5096344;28;20105;-67
2023/08/13 11:13:16;;;;;;;4.28;3.20;;;;;;;31.56;100.00;96052.78;5095363;28;20172;-67
2023/08/13 11:15:51;;;;;;;6.40;3.28;;;;;;;31.56;100.00;96050.84;5095405;28;20020;-67
2023/08/13 11:18:17;;;;;;;4.13;3.20;;;;;;;31.66;100.00;96041.09;5095340;28;20023;-68
2023/08/13 11:20:44;;;;;;;3.47;2.92;;;;;;;31.64;100.00;96051.44;5096411;28;20020;-68